createdAt,value
2019-02-16T11:51:50.053Z,33.00
2019-02-16T11:52:50.015Z,32.81
2019-02-16T11:53:51.682Z,33.41
2019-02-16T11:54:50.000Z,32.81
2019-02-16T11:55:50.001Z,32.91
2019-02-16T11:56:50.108Z,33.41
2019-02-16T11:57:50.191Z,33.41
2019-02-16T11:58:50.014Z,33.21
2019-02-16T11:59:49.848Z,33.11
2019-02-16T12:00:49.702Z,34.11
2019-02-16T12:01:49.909Z,33.31
2019-02-16T12:02:49.927Z,33.01
2019-02-16T12:03:49.845Z,34.11
2019-02-16T12:04:49.767Z,33.81
2019-02-16T12:05:49.785Z,33.41
2019-02-16T12:06:49.640Z,32.61
2019-02-16T12:07:49.661Z,32.70
2019-02-16T12:08:49.462Z,34.41
2019-02-16T12:09:49.418Z,33.41
2019-02-16T12:10:49.373Z,33.31
2019-02-16T12:11:49.536Z,32.41
2019-02-16T12:12:49.391Z,31.41
2019-02-16T12:13:49.608Z,32.71
2019-02-16T12:14:49.431Z,32.11
2019-02-16T12:15:49.655Z,32.41
2019-02-16T12:16:49.430Z,32.79
2019-02-16T12:17:49.210Z,31.20
2019-02-16T12:18:49.318Z,30.69
2019-02-16T12:19:49.204Z,30.49
2019-02-16T12:20:49.137Z,30.90
2019-02-16T12:21:49.078Z,30.90
2019-02-16T12:22:49.051Z,30.19
2019-02-16T12:23:49.145Z,30.19
2019-02-16T12:24:58.687Z,30.79
2019-02-16T12:25:49.921Z,30.60
2019-02-16T12:26:48.982Z,31.79
2019-02-16T12:27:48.626Z,31.90
2019-02-16T12:29:22.554Z,32.50
2019-02-16T12:31:38.500Z,32.08
2019-02-16T12:32:38.311Z,30.60
2019-02-16T12:33:38.368Z,29.98
2019-02-16T12:34:38.371Z,30.68
2019-02-16T12:37:12.554Z,26.31
2019-02-16T12:38:12.623Z,27.47
2019-02-16T12:39:12.767Z,28.42
2019-02-16T12:40:12.605Z,28.08
2019-02-16T12:41:12.735Z,29.85
2019-02-16T12:42:12.622Z,29.49
2019-02-16T12:43:12.462Z,31.84
2019-02-16T12:44:12.555Z,35.01
2019-02-16T12:45:12.294Z,31.18
2019-02-16T12:46:12.417Z,32.10
2019-02-16T12:47:12.280Z,32.62
2019-02-16T12:48:12.324Z,32.44
2019-02-16T12:49:12.409Z,34.69
2019-02-16T12:50:12.269Z,33.69
2019-02-16T12:51:12.376Z,33.89
2019-02-16T12:52:12.232Z,33.89
2019-02-16T12:53:12.515Z,35.41
2019-02-16T12:54:12.541Z,34.31
2019-02-16T12:55:14.648Z,35.42
2019-02-16T12:56:12.183Z,37.87
2019-02-16T12:57:12.187Z,35.42
2019-02-16T12:58:12.150Z,35.33
2019-02-16T12:59:12.324Z,35.94
2019-02-16T13:00:12.116Z,35.12
2019-02-16T13:01:12.163Z,35.24
2019-02-16T13:02:12.275Z,35.04
2019-02-16T13:03:12.088Z,35.34
2019-02-16T13:04:12.294Z,35.44
2019-02-16T13:05:12.219Z,37.68
2019-02-16T13:06:12.287Z,37.27
2019-02-16T13:07:12.257Z,35.85
2019-02-16T13:08:12.182Z,35.95
2019-02-16T13:09:12.297Z,35.64
2019-02-16T13:10:12.400Z,35.95
2019-02-16T13:11:12.225Z,37.88
2019-02-16T13:12:12.229Z,38.59
2019-02-16T13:13:12.218Z,36.25
2019-02-16T13:14:12.144Z,35.75
2019-02-16T13:15:12.238Z,35.55
2019-02-16T13:16:12.076Z,36.46
2019-02-16T13:17:12.177Z,37.37
2019-02-16T13:19:27.961Z,36.56
2019-02-16T13:20:28.071Z,37.07
2019-02-16T13:21:27.950Z,35.95
2019-02-16T13:22:27.919Z,35.95
2019-02-16T13:23:27.824Z,37.68
2019-02-16T13:24:27.919Z,37.35
2019-02-16T13:25:28.027Z,36.75
2019-02-16T13:26:27.934Z,37.27
2019-02-16T13:27:27.779Z,36.54
2019-02-16T13:28:27.864Z,36.24
2019-02-16T13:29:27.887Z,35.83
2019-02-16T13:30:27.966Z,35.42
2019-02-16T13:31:27.889Z,34.72
2019-02-16T13:32:27.993Z,35.12
2019-02-16T13:33:27.816Z,33.79
2019-02-16T13:34:27.752Z,35.31
2019-02-16T13:35:27.896Z,35.61
2019-02-16T13:36:27.812Z,34.30
2019-02-16T13:37:27.846Z,35.61
2019-02-16T13:38:27.756Z,35.11
2019-02-16T13:39:27.816Z,34.60
2019-02-16T13:40:27.728Z,34.60
2019-02-16T13:41:27.850Z,36.22
2019-02-16T13:42:27.741Z,36.32
2019-02-16T13:43:27.753Z,34.91
2019-02-16T13:44:27.766Z,34.19
2019-02-16T13:45:27.490Z,35.41
2019-02-16T13:46:27.695Z,34.60
2019-02-16T13:47:27.678Z,35.92
2019-02-16T13:48:27.586Z,35.31
2019-02-16T13:49:27.693Z,36.02
2019-02-16T13:50:27.706Z,35.51
2019-02-16T13:51:27.814Z,35.51
2019-02-16T13:52:27.518Z,36.63
2019-02-16T13:53:27.623Z,36.63
2019-02-16T13:54:27.520Z,34.09
2019-02-16T13:55:33.392Z,36.63
2019-02-16T13:56:28.670Z,34.38
2019-02-16T13:57:27.587Z,36.63
2019-02-16T13:58:27.546Z,34.69
2019-02-16T13:59:27.556Z,35.29
2019-02-16T14:00:27.568Z,33.47
2019-02-16T14:01:27.625Z,34.91
2019-02-16T14:02:27.471Z,33.79
2019-02-16T14:03:27.385Z,34.38
2019-02-16T14:04:27.524Z,33.97
2019-02-16T14:05:27.497Z,34.30
2019-02-16T14:06:27.608Z,32.98
2019-02-16T14:07:27.466Z,32.87
2019-02-16T14:08:27.430Z,33.58
2019-02-16T14:09:27.432Z,35.00
2019-02-16T14:10:28.760Z,34.19
2019-02-16T14:11:27.445Z,35.72
2019-02-16T14:12:28.066Z,35.72
2019-02-16T14:13:27.895Z,37.85
2019-02-16T14:14:27.271Z,33.89
2019-02-16T14:15:29.454Z,37.04
2019-02-16T14:16:27.470Z,35.41
2019-02-16T14:17:27.379Z,35.82
2019-02-16T14:18:27.424Z,32.67
2019-02-16T14:19:27.347Z,31.84
2019-02-16T14:20:27.350Z,33.48
2019-02-16T14:21:28.454Z,33.38
2019-02-16T14:22:27.540Z,33.58
2019-02-16T14:23:28.571Z,32.98
2019-02-16T14:24:27.339Z,33.38
2019-02-16T14:25:27.151Z,33.99
2019-02-16T14:26:27.276Z,32.57
2019-02-16T14:27:27.406Z,34.19
2019-02-16T14:28:28.922Z,36.53
2019-02-16T14:29:27.520Z,33.06
2019-02-16T14:30:27.319Z,35.39
2019-02-16T14:31:50.667Z,33.37
2019-02-16T14:32:28.830Z,34.48
2019-02-16T14:33:27.095Z,35.09
2019-02-16T14:34:27.891Z,35.19
2019-02-16T14:35:27.917Z,36.82
2019-02-16T14:36:27.177Z,36.10
2019-02-16T14:37:27.291Z,35.19
2019-02-16T14:38:27.185Z,33.97
2019-02-16T14:39:27.264Z,32.76
2019-02-16T14:40:27.117Z,32.86
2019-02-16T14:41:27.135Z,35.29
2019-02-16T14:42:27.382Z,33.16
2019-02-16T14:43:26.961Z,33.16
2019-02-16T14:44:27.065Z,32.06
2019-02-16T14:45:27.089Z,33.07
2019-02-16T14:46:27.098Z,33.89
